Detroit Express — VRLX4 — position and weather

sailwx.info

Track history (hours):
 
Tides and Currents Weather Stations Pressure Air Temp Water Temp Dewpoint Dewpoint Depression Visibility Wind Speed Wind Dir Waves Ship Positions

Detroit Express

Last reported at 2017-Oct-20 07:00 UTC. Time now 2017-Oct-20 07:20 UTC.
Position N 39°13' E 009°04'.

Length 228 m; draft 9.3 m.

Type: Ship (hazmat cat D). MMSI: 477776300.

Date/timePositionNaut miles runAvg speedWind from/ knotsBaromVisibWave heightAir tempDewpointWater temp
2017-Oct-20 07:00N 39°13' E 009°04'0 0.0
2017-Oct-20 06:30N 39°13' E 009°04'0 0.0
2017-Oct-20 06:00N 39°13' E 009°04'0 0.0
2017-Oct-20 05:30N 39°13' E 009°04'0 0.0
2017-Oct-20 05:00N 39°13' E 009°04'0 0.0
2017-Oct-20 04:30N 39°13' E 009°04'0 0.0
2017-Oct-20 04:00N 39°13' E 009°04'0 0.8
2017-Oct-20 03:30N 39°13' E 009°04'3 5.1
2017-Oct-20 03:00N 39°11' E 009°06'4 8.2
2017-Oct-20 02:30N 39°07' E 009°07'5 9.3
2017-Oct-20 01:59N 39°02' E 009°08'612.6
2017-Oct-20 01:30N 38°56' E 009°06'917.3
2017-Oct-20 01:00N 38°49' E 009°01'918.2
2017-Oct-20 00:30N 38°42' E 008°53'816.9
2017-Oct-20 00:00N 38°39' E 008°43'1217.1
2017-Oct-19 23:20N 38°39' E 008°28'2717.0
2017-Oct-19 21:45N 38°41' E 007°54'417.1
2017-Oct-19 21:30N 38°42' E 007°48'21417.2
2017-Oct-19 09:04N 38°60' E 003°14'917.9
2017-Oct-19 08:35N 39°00' E 003°03'217.7
2017-Oct-19 08:30N 39°01' E 003°01'1017.1
2017-Oct-19 07:53N 39°02' E 002°48'817.2
2017-Oct-19 07:25N 39°04' E 002°38'717.0
2017-Oct-19 07:00N 39°05' E 002°29'917.0
2017-Oct-19 06:30N 39°07' E 002°18'148 6.6
2017-Oct-18 08:09N 37°46' W 000°20'217.6
2017-Oct-18 08:00N 37°44' W 000°21'917.7
2017-Oct-18 07:30N 37°37' W 000°28'917.6
2017-Oct-18 06:59N 37°30' W 000°35'917.9
2017-Oct-18 06:30N 37°24' W 000°43'918.0
2017-Oct-18 06:00N 37°18' W 000°52'917.7
2017-Oct-18 05:30N 37°12' W 001°00'917.2
2017-Oct-18 05:00N 37°07' W 001°08'20716.7
2017-Oct-17 16:38N 35°60' W 005°12'217.8
2017-Oct-17 16:30N 35°59' W 005°15'816.7
2017-Oct-17 16:00N 35°57' W 005°25'5 0.4
2017-Oct-17 03:08N 35°55' W 005°30'210.7
2017-Oct-17 02:59N 35°55' W 005°32'1 1.7
2017-Oct-17 02:31N 35°54' W 005°33'1 2.7
2017-Oct-17 02:01N 35°54' W 005°34'0 0.9
2017-Oct-17 01:31N 35°53' W 005°34'0 0.3
2017-Oct-17 01:01N 35°53' W 005°34'0 0.2
2017-Oct-17 00:31N 35°53' W 005°34'1 1.1
2017-Oct-16 23:56N 35°54' W 005°34'1 1.8
2017-Oct-16 23:22N 35°55' W 005°33'3 7.6
2017-Oct-16 23:01N 35°57' W 005°33'3 5.9
2017-Oct-16 22:31N 35°58' W 005°29'3 6.0
2017-Oct-16 22:00N 36°00' W 005°26'3 5.4
2017-Oct-16 21:31N 36°01' W 005°23'3 5.3
2017-Oct-16 21:01N 36°03' W 005°20'1 2.4
2017-Oct-16 20:31N 36°03' W 005°19'1 1.5
2017-Oct-16 20:01N 36°03' W 005°20'3 6.3
2017-Oct-16 19:31N 36°05' W 005°23'4 7.1
2017-Oct-16 19:00N 36°09' W 005°23'1 2.0
2017-Oct-16 18:23N 36°10' W 005°24'0 0.0
2017-Oct-16 17:53N 36°10' W 005°24'0 0.0
2017-Oct-16 16:59N 36°10' W 005°24'0 0.0
2017-Oct-16 16:20N 36°10' W 005°24'0 0.0
2017-Oct-16 15:20N 36°10' W 005°24'0 0.0
2017-Oct-16 14:50N 36°10' W 005°24'0 0.0
2017-Oct-16 13:59N 36°10' W 005°24'0 0.0
2017-Oct-16 13:29N 36°10' W 005°24'0 0.0
2017-Oct-16 09:35N 36°10' W 005°24'0 0.1
2017-Oct-16 09:29N 36°10' W 005°24'0 0.0
2017-Oct-16 05:20N 36°10' W 005°24'0 0.0
2017-Oct-16 04:59N 36°10' W 005°24'0 0.1
2017-Oct-16 04:30N 36°10' W 005°24'2 4.4
2017-Oct-16 04:00N 36°08' W 005°24'4 7.3
2017-Oct-16 03:31N 36°04' W 005°23'5 9.6
2017-Oct-16 03:00N 35°60' W 005°23'815.0
2017-Oct-16 02:30N 35°57' W 005°32'1816.6
2017-Oct-16 01:26N 35°54' W 005°53'717.3
2017-Oct-16 01:00N 35°53' W 006°02'1217.5
2017-Oct-16 00:20N 35°53' W 006°17'3616.5
2017-Oct-15 22:08N 35°53' W 007°02'316.4
2017-Oct-15 21:57N 35°54' W 007°05'816.7
2017-Oct-15 21:30N 35°56' W 007°14'816.7
2017-Oct-15 21:00N 35°58' W 007°24'917.1
2017-Oct-15 20:30N 36°00' W 007°35'816.7
2017-Oct-15 20:00N 36°02' W 007°45'816.8
2017-Oct-15 19:30N 36°04' W 007°55'816.9
2017-Oct-15 19:00N 36°06' W 008°05'816.4
2017-Oct-15 18:30N 36°09' W 008°14'816.2
2017-Oct-15 18:00N 36°11' W 008°24'816.3
2017-Oct-15 17:30N 36°13' W 008°34'816.3
2017-Oct-15 17:00N 36°15' W 008°44'816.5
2017-Oct-15 16:30N 36°17' W 008°54'917.1
2017-Oct-15 16:00N 36°19' W 009°04'816.7
2017-Oct-15 15:30N 36°21' W 009°14'816.6
2017-Oct-15 15:00N 36°23' W 009°24'1716.6
2017-Oct-15 14:00N 36°31' W 009°42'816.5
2017-Oct-15 13:30N 36°36' W 009°51'816.6
2017-Oct-15 13:00N 36°39' W 009°60'816.5
2017-Oct-15 12:30N 36°43' W 010°09'916.6
2017-Oct-15 12:00N 36°47' W 010°18'816.7
2017-Oct-15 11:30N 36°52' W 010°27'816.9
2017-Oct-15 11:00N 36°56' W 010°36'917.0
2017-Oct-15 10:30N 37°00' W 010°45'917.2
2017-Oct-15 10:00N 37°04' W 010°55'816.8
2017-Oct-15 09:30N 37°08' W 011°04'816.6
2017-Oct-15 09:00N 37°12' W 011°13'816.9
2017-Oct-15 08:30N 37°16' W 011°23'510.2
2017-Oct-15 08:00N 37°19' W 011°28'510.3
2017-Oct-15 07:30N 37°21' W 011°34'917.2
2017-Oct-15 07:00N 37°26' W 011°43'817.0
2017-Oct-15 06:31N 37°30' W 011°52'816.9
2017-Oct-15 06:00N 37°34' W 012°02'816.7
2017-Oct-15 05:30N 37°38' W 012°11'816.7
2017-Oct-15 05:00N 37°42' W 012°20'816.6
2017-Oct-15 04:30N 37°46' W 012°29'816.8
2017-Oct-15 04:00N 37°50' W 012°39'816.5
2017-Oct-15 03:30N 37°54' W 012°48'816.5
2017-Oct-15 03:00N 37°58' W 012°57'2016.4
2017-Oct-15 01:48N 38°06' W 013°20'816.3
2017-Oct-15 01:17N 38°10' W 013°29'516.4
2017-Oct-15 01:01N 38°12' W 013°34'1316.9
2017-Oct-15 00:16N 38°18' W 013°48'417.2
2017-Oct-15 00:00N 38°20' W 013°54'5816.9
2017-Oct-14 20:33N 38°47' W 014°60'  
Track history (hours):
 
Tides and Currents Weather Stations Pressure Air Temp Water Temp Dewpoint Dewpoint Depression Visibility Wind Speed Wind Dir Waves Ship Positions

Detroit Express

Last reported at 2017-Oct-20 07:00 UTC. Time now 2017-Oct-20 07:20 UTC.
Position N 39°13' E 009°04'.

Length 228 m; draft 9.3 m.

Type: Ship (hazmat cat D). MMSI: 477776300.

Date/timePositionNaut miles runAvg speedWind from/ knotsBaromVisibWave heightAir tempDewpointWater temp
2017-Oct-20 07:00N 39°13' E 009°04'0 0.0
2017-Oct-20 06:30N 39°13' E 009°04'0 0.0
2017-Oct-20 06:00N 39°13' E 009°04'0 0.0
2017-Oct-20 05:30N 39°13' E 009°04'0 0.0
2017-Oct-20 05:00N 39°13' E 009°04'0 0.0
2017-Oct-20 04:30N 39°13' E 009°04'0 0.0
2017-Oct-20 04:00N 39°13' E 009°04'0 0.8
2017-Oct-20 03:30N 39°13' E 009°04'3 5.1
2017-Oct-20 03:00N 39°11' E 009°06'4 8.2
2017-Oct-20 02:30N 39°07' E 009°07'5 9.3
2017-Oct-20 01:59N 39°02' E 009°08'612.6
2017-Oct-20 01:30N 38°56' E 009°06'917.3
2017-Oct-20 01:00N 38°49' E 009°01'918.2
2017-Oct-20 00:30N 38°42' E 008°53'816.9
2017-Oct-20 00:00N 38°39' E 008°43'1217.1
2017-Oct-19 23:20N 38°39' E 008°28'2717.0
2017-Oct-19 21:45N 38°41' E 007°54'417.1
2017-Oct-19 21:30N 38°42' E 007°48'21417.2
2017-Oct-19 09:04N 38°60' E 003°14'917.9
2017-Oct-19 08:35N 39°00' E 003°03'217.7
2017-Oct-19 08:30N 39°01' E 003°01'1017.1
2017-Oct-19 07:53N 39°02' E 002°48'817.2
2017-Oct-19 07:25N 39°04' E 002°38'717.0
2017-Oct-19 07:00N 39°05' E 002°29'917.0
2017-Oct-19 06:30N 39°07' E 002°18'148 6.6
2017-Oct-18 08:09N 37°46' W 000°20'217.6
2017-Oct-18 08:00N 37°44' W 000°21'917.7
2017-Oct-18 07:30N 37°37' W 000°28'917.6
2017-Oct-18 06:59N 37°30' W 000°35'917.9
2017-Oct-18 06:30N 37°24' W 000°43'918.0
2017-Oct-18 06:00N 37°18' W 000°52'917.7
2017-Oct-18 05:30N 37°12' W 001°00'917.2
2017-Oct-18 05:00N 37°07' W 001°08'20716.7
2017-Oct-17 16:38N 35°60' W 005°12'217.8
2017-Oct-17 16:30N 35°59' W 005°15'816.7
2017-Oct-17 16:00N 35°57' W 005°25'5 0.4
2017-Oct-17 03:08N 35°55' W 005°30'210.7
2017-Oct-17 02:59N 35°55' W 005°32'1 1.7
2017-Oct-17 02:31N 35°54' W 005°33'1 2.7
2017-Oct-17 02:01N 35°54' W 005°34'0 0.9
2017-Oct-17 01:31N 35°53' W 005°34'0 0.3
2017-Oct-17 01:01N 35°53' W 005°34'0 0.2
2017-Oct-17 00:31N 35°53' W 005°34'1 1.1
2017-Oct-16 23:56N 35°54' W 005°34'1 1.8
2017-Oct-16 23:22N 35°55' W 005°33'3 7.6
2017-Oct-16 23:01N 35°57' W 005°33'3 5.9
2017-Oct-16 22:31N 35°58' W 005°29'3 6.0
2017-Oct-16 22:00N 36°00' W 005°26'3 5.4
2017-Oct-16 21:31N 36°01' W 005°23'3 5.3
2017-Oct-16 21:01N 36°03' W 005°20'1 2.4
2017-Oct-16 20:31N 36°03' W 005°19'1 1.5
2017-Oct-16 20:01N 36°03' W 005°20'3 6.3
2017-Oct-16 19:31N 36°05' W 005°23'4 7.1
2017-Oct-16 19:00N 36°09' W 005°23'1 2.0
2017-Oct-16 18:23N 36°10' W 005°24'0 0.0
2017-Oct-16 17:53N 36°10' W 005°24'0 0.0
2017-Oct-16 16:59N 36°10' W 005°24'0 0.0
2017-Oct-16 16:20N 36°10' W 005°24'0 0.0
2017-Oct-16 15:20N 36°10' W 005°24'0 0.0
2017-Oct-16 14:50N 36°10' W 005°24'0 0.0
2017-Oct-16 13:59N 36°10' W 005°24'0 0.0
2017-Oct-16 13:29N 36°10' W 005°24'0 0.0
2017-Oct-16 09:35N 36°10' W 005°24'0 0.1
2017-Oct-16 09:29N 36°10' W 005°24'0 0.0
2017-Oct-16 05:20N 36°10' W 005°24'0 0.0
2017-Oct-16 04:59N 36°10' W 005°24'0 0.1
2017-Oct-16 04:30N 36°10' W 005°24'2 4.4
2017-Oct-16 04:00N 36°08' W 005°24'4 7.3
2017-Oct-16 03:31N 36°04' W 005°23'5 9.6
2017-Oct-16 03:00N 35°60' W 005°23'815.0
2017-Oct-16 02:30N 35°57' W 005°32'1816.6
2017-Oct-16 01:26N 35°54' W 005°53'717.3
2017-Oct-16 01:00N 35°53' W 006°02'1217.5
2017-Oct-16 00:20N 35°53' W 006°17'3616.5
2017-Oct-15 22:08N 35°53' W 007°02'316.4
2017-Oct-15 21:57N 35°54' W 007°05'816.7
2017-Oct-15 21:30N 35°56' W 007°14'816.7
2017-Oct-15 21:00N 35°58' W 007°24'917.1
2017-Oct-15 20:30N 36°00' W 007°35'816.7
2017-Oct-15 20:00N 36°02' W 007°45'816.8
2017-Oct-15 19:30N 36°04' W 007°55'816.9
2017-Oct-15 19:00N 36°06' W 008°05'816.4
2017-Oct-15 18:30N 36°09' W 008°14'816.2
2017-Oct-15 18:00N 36°11' W 008°24'816.3
2017-Oct-15 17:30N 36°13' W 008°34'816.3
2017-Oct-15 17:00N 36°15' W 008°44'816.5
2017-Oct-15 16:30N 36°17' W 008°54'917.1
2017-Oct-15 16:00N 36°19' W 009°04'816.7
2017-Oct-15 15:30N 36°21' W 009°14'816.6
2017-Oct-15 15:00N 36°23' W 009°24'1716.6
2017-Oct-15 14:00N 36°31' W 009°42'816.5
2017-Oct-15 13:30N 36°36' W 009°51'816.6
2017-Oct-15 13:00N 36°39' W 009°60'816.5
2017-Oct-15 12:30N 36°43' W 010°09'916.6
2017-Oct-15 12:00N 36°47' W 010°18'816.7
2017-Oct-15 11:30N 36°52' W 010°27'816.9
2017-Oct-15 11:00N 36°56' W 010°36'917.0
2017-Oct-15 10:30N 37°00' W 010°45'917.2
2017-Oct-15 10:00N 37°04' W 010°55'816.8
2017-Oct-15 09:30N 37°08' W 011°04'816.6
2017-Oct-15 09:00N 37°12' W 011°13'816.9
2017-Oct-15 08:30N 37°16' W 011°23'510.2
2017-Oct-15 08:00N 37°19' W 011°28'510.3
2017-Oct-15 07:30N 37°21' W 011°34'917.2
2017-Oct-15 07:00N 37°26' W 011°43'817.0
2017-Oct-15 06:31N 37°30' W 011°52'816.9
2017-Oct-15 06:00N 37°34' W 012°02'816.7
2017-Oct-15 05:30N 37°38' W 012°11'816.7
2017-Oct-15 05:00N 37°42' W 012°20'816.6
2017-Oct-15 04:30N 37°46' W 012°29'816.8
2017-Oct-15 04:00N 37°50' W 012°39'816.5
2017-Oct-15 03:30N 37°54' W 012°48'816.5
2017-Oct-15 03:00N 37°58' W 012°57'2016.4
2017-Oct-15 01:48N 38°06' W 013°20'816.3
2017-Oct-15 01:17N 38°10' W 013°29'516.4
2017-Oct-15 01:01N 38°12' W 013°34'1316.9
2017-Oct-15 00:16N 38°18' W 013°48'417.2
2017-Oct-15 00:00N 38°20' W 013°54'5816.9
2017-Oct-14 20:33N 38°47' W 014°60'  

Dump ship's entire track history